LTFJ/SAW METAR and TAF weather

Enter ICAO airport designator
Station Type Date Time Source
LTFJ METAR 2019/12/12 16:50 UTC NOAA

LTFJ 121650Z 05006KT 9999 -SHRA SCT035 BKN080 12/10 Q1006 NOSIG


Station Type Date Time Source
LTFJ Decoded METAR 2019/12/12 16:50 UTC NOAA

Istanbul / Sabiha Gokcen, Turkey (LTFJ) 40-53-55N 029-18-33E
Dec 12, 2019 - 11:50 AM EST / 2019.12.12 1650 UTC
Wind: from the NE (050 degrees) at 7 MPH (6 KT):0
Visibility: greater than 7 mile(s):0
Sky conditions: mostly cloudy
Weather: light rain showers
Temperature: 53 F (12 C)
Dew Point: 50 F (10 C)
Relative Humidity: 87%
Pressure (altimeter): 29.71 in. Hg (1006 hPa)
ob: LTFJ 121650Z 05006KT 9999 -SHRA SCT035 BKN080 12/10 Q1006 NOSIG
cycle: 17

Station Type Date Time Source
LTFJ TAF 2019/12/12 18:03 UTC NOAA

TAF LTFJ 121640Z 1218/1318 VRB02KT 9999 -SHRA SCT035 BKN090 PROB30 1302/1306 4000 SHRA BR BKN015 BKN030

Example: see airport list